Time;durP1;ratioP1;P1;durP2;ratioP2;P2;SDS_P1;SDS_P2;PMS_P1;PMS_P2;Temp;Humidity;BMP_temperature;BMP_pressure;BME280_temperature;BME280_humidity;BME280_pressure;Samples;Min_cycle;Max_cycle;Signal;HPM_P1;HPM_P2
2022/11/11 00:00:50;;;;;;;;;;;;;;;8.63;93.80;102810.22;5048598;28;19925;-58
2022/11/11 00:03:16;;;;;;;;;;;;;;;8.65;93.85;102808.28;5047601;28;20360;-59
2022/11/11 00:05:41;;;;;;;;;;;;;;;8.67;94.04;102816.97;5045456;28;20389;-59
2022/11/11 00:08:07;;;;;;;;;;;;;;;8.71;93.95;102809.69;5048575;28;19921;-58
2022/11/11 00:10:32;;;;;;;;;;;;;;;8.72;93.91;102804.28;5045066;28;19928;-58
2022/11/11 00:12:58;;;;;;;;;;;;;;;8.75;93.94;102796.09;5042385;28;19921;-58
2022/11/11 00:15:23;;;;;;;;;;;;;;;8.76;94.24;102795.16;5044816;28;19939;-58
2022/11/11 00:26:04;;;;;;;;;;;;;;;8.84;94.38;102819.28;5047422;28;20108;-56
2022/11/11 00:28:29;;;;;;;;;;;;;;;8.87;94.66;102807.59;5042692;28;20498;-61
2022/11/11 00:31:04;;;;;;;;;;;;;;;8.90;94.76;102813.53;5047668;28;19962;-58
2022/11/11 00:33:29;;;;;;;;;;;;;;;8.95;94.76;102814.03;5040642;28;19920;-58
2022/11/11 00:35:54;;;;;;;;;;;;;;;8.96;94.99;102813.09;5040683;28;20077;-58
2022/11/11 00:41:03;;;;;;;;;;;;;;;9.00;94.78;102819.88;5047496;28;20400;-60
2022/11/11 00:43:28;;;;;;;;;;;;;;;9.02;94.82;102824.22;5043547;28;19917;-59
2022/11/11 00:50:57;;;;;;;;;;;;;;;9.04;94.72;102822.28;5045054;28;20369;-60
2022/11/11 00:51:23;;;;;;;;;;;;;;;9.06;94.79;102817.72;5046433;28;19923;-57
2022/11/11 00:53:48;;;;;;;;;;;;;;;9.06;94.84;102820.38;5043151;28;20397;-60
2022/11/11 00:56:13;;;;;;;;;;;;;;;9.10;94.74;102821.84;5043966;28;19948;-59
2022/11/11 00:58:38;;;;;;;;;;;;;;;9.11;94.79;102836.78;5048235;28;19916;-60
2022/11/11 01:01:04;;;;;;;;;;;;;;;9.12;94.85;102841.13;5044563;28;19921;-59
2022/11/11 01:03:29;;;;;;;;;;;;;;;9.13;95.17;102833.06;5049405;28;20431;-60
2022/11/11 01:05:58;;;;;;;;;;;;;;;9.16;94.98;102845.22;5046760;28;19927;-58
2022/11/11 01:08:25;;;;;;;;;;;;;;;9.19;95.01;102847.66;5045661;28;20388;-58
2022/11/11 01:10:50;;;;;;;;;;;;;;;9.20;95.03;102836.94;5043169;28;19921;-58
2022/11/11 01:13:17;;;;;;;;;;;;;;;9.21;94.67;102838.63;5051305;28;20269;-60
2022/11/11 01:15:45;;;;;;;;;;;;;;;9.22;94.97;102845.63;5054726;28;19916;-60
2022/11/11 01:18:11;;;;;;;;;;;;;;;9.24;94.74;102842.88;5049024;28;20114;-57
2022/11/11 01:20:37;;;;;;;;;;;;;;;9.25;94.83;102839.25;5044191;28;19924;-57
2022/11/11 01:23:05;;;;;;;;;;;;;;;9.25;94.71;102837.47;5047292;28;19913;-58
2022/11/11 01:25:34;;;;;;;;;;;;;;;9.25;94.68;102837.47;5042320;28;20011;-58
2022/11/11 01:28:00;;;;;;;;;;;;;;;9.26;94.87;102828.56;5044260;28;20292;-60
2022/11/11 01:30:25;;;;;;;;;;;;;;;9.23;94.72;102820.81;5044417;28;19924;-60
2022/11/11 01:32:50;;;;;;;;;;;;;;;9.28;95.02;102831.09;5045099;28;19925;-58
2022/11/11 01:35:15;;;;;;;;;;;;;;;9.28;94.93;102824.00;5045235;28;19939;-60
2022/11/11 01:37:40;;;;;;;;;;;;;;;9.29;94.90;102820.38;5043633;28;20380;-60
2022/11/11 01:40:06;;;;;;;;;;;;;;;9.29;94.88;102814.22;5046616;28;20382;-59
2022/11/11 01:42:45;;;;;;;;;;;;;;;9.28;94.59;102812.53;5040088;28;19921;-59
2022/11/11 01:45:29;;;;;;;;;;;;;;;9.28;94.80;102818.69;5046188;28;19921;-58
2022/11/11 01:50:38;;;;;;;;;;;;;;;9.28;94.99;102802.78;5040852;28;20328;-60
2022/11/11 01:53:03;;;;;;;;;;;;;;;9.27;94.78;102806.41;5037517;28;19925;-58
2022/11/11 01:55:28;;;;;;;;;;;;;;;9.28;94.95;102805.44;5043876;28;19920;-58
2022/11/11 01:57:58;;;;;;;;;;;;;;;9.30;94.85;102810.63;5045541;28;19921;-59
2022/11/11 02:00:24;;;;;;;;;;;;;;;9.30;94.61;102810.63;5043198;28;19931;-60
2022/11/11 02:02:56;;;;;;;;;;;;;;;9.28;95.06;102805.44;5046939;28;19917;-59
2022/11/11 02:08:08;;;;;;;;;;;;;;;9.28;95.07;102799.28;5045422;28;19924;-59
2022/11/11 02:10:34;;;;;;;;;;;;;;;9.26;94.99;102796.75;5045581;28;20011;-59
2022/11/11 02:15:43;;;;;;;;;;;;;;;9.24;94.93;102798.63;5048850;28;19923;-59
2022/11/11 02:18:09;;;;;;;;;;;;;;;9.24;95.31;102805.75;5038342;28;20027;-59
2022/11/11 02:20:36;;;;;;;;;;;;;;;9.22;95.24;102800.56;5042355;28;19917;-60
2022/11/11 02:23:01;;;;;;;;;;;;;;;9.21;95.01;102801.53;5039246;28;20388;-59
2022/11/11 02:25:28;;;;;;;;;;;;;;;9.19;95.38;102792.00;5043593;28;20377;-59
2022/11/11 02:27:56;;;;;;;;;;;;;;;9.19;95.25;102807.91;5046299;28;19920;-60
2022/11/11 02:30:21;;;;;;;;;;;;;;;9.19;95.24;102802.59;5041159;28;19936;-57
2022/11/11 02:32:48;;;;;;;;;;;;;;;9.18;95.56;102801.75;5049077;28;19917;-60
2022/11/11 02:35:15;;;;;;;;;;;;;;;9.20;95.68;102804.28;5050378;28;19920;-60
2022/11/11 02:37:43;;;;;;;;;;;;;;;9.18;95.70;102804.41;5042634;28;20997;-58
2022/11/11 02:40:11;;;;;;;;;;;;;;;9.18;95.46;102795.59;5049232;28;20512;-58
2022/11/11 02:42:36;;;;;;;;;;;;;;;9.18;95.72;102795.59;5051939;28;19924;-57
2022/11/11 02:45:01;;;;;;;;;;;;;;;9.15;95.62;102786.06;5045435;28;19920;-60
2022/11/11 02:47:26;;;;;;;;;;;;;;;9.13;95.67;102777.41;5047710;28;20405;-57
2022/11/11 02:49:51;;;;;;;;;;;;;;;9.14;95.63;102786.19;5050969;28;19916;-59
2022/11/11 02:52:17;;;;;;;;;;;;;;;9.12;95.76;102785.47;5053658;28;20371;-60
2022/11/11 02:54:42;;;;;;;;;;;;;;;9.11;95.89;102789.91;5049194;28;20311;-60
2022/11/11 02:57:07;;;;;;;;;;;;;;;9.11;95.66;102797.03;5050551;28;20412;-59
2022/11/11 02:59:36;;;;;;;;;;;;;;;9.11;95.86;102791.72;5048832;28;19923;-58
2022/11/11 03:02:02;;;;;;;;;;;;;;;9.10;95.83;102788.22;5047621;28;20030;-59
2022/11/11 03:04:28;;;;;;;;;;;;;;;9.08;95.98;102782.19;5043714;28;20054;-58
2022/11/11 03:06:53;;;;;;;;;;;;;;;9.09;95.96;102780.38;5050240;28;19924;-58
2022/11/11 03:09:18;;;;;;;;;;;;;;;9.07;95.56;102787.59;5052443;28;20482;-58
2022/11/11 03:11:43;;;;;;;;;;;;;;;9.08;95.57;102789.31;5048760;28;20004;-59
2022/11/11 03:14:08;;;;;;;;;;;;;;;9.05;95.57;102792.19;5044316;28;19928;-59
2022/11/11 03:19:18;;;;;;;;;;;;;;;9.06;95.74;102796.53;5047102;28;19955;-60
2022/11/11 03:21:43;;;;;;;;;;;;;;;9.05;95.82;102787.72;5043784;28;19964;-60
2022/11/11 03:24:09;;;;;;;;;;;;;;;9.05;95.81;102784.22;5045519;28;20007;-58
2022/11/11 03:26:34;;;;;;;;;;;;;;;9.04;95.62;102782.53;5048511;28;19921;-59
2022/11/11 03:28:59;;;;;;;;;;;;;;;9.03;95.47;102791.44;5040908;28;19963;-58
2022/11/11 03:31:24;;;;;;;;;;;;;;;9.04;95.86;102795.78;5048425;28;19923;-60
2022/11/11 03:33:49;;;;;;;;;;;;;;;9.03;95.81;102794.09;5048465;28;19921;-59
2022/11/11 03:36:14;;;;;;;;;;;;;;;9.01;95.55;102788.91;5045658;28;19963;-60
2022/11/11 03:38:40;;;;;;;;;;;;;;;9.02;95.54;102785.31;5046408;28;20146;-59
2022/11/11 03:41:05;;;;;;;;;;;;;;;8.99;95.76;102781.06;5043392;28;19978;-59
2022/11/11 03:43:31;;;;;;;;;;;;;;;8.98;95.63;102773.25;5044465;28;19917;-59
2022/11/11 03:45:58;;;;;;;;;;;;;;;8.98;95.77;102781.19;5037403;28;19944;-59
2022/11/11 03:48:23;;;;;;;;;;;;;;;8.96;95.72;102776.00;5047274;28;19951;-60
2022/11/11 03:50:48;;;;;;;;;;;;;;;8.98;95.60;102789.13;5044721;28;19925;-59
2022/11/11 03:53:14;;;;;;;;;;;;;;;8.94;95.79;102783.19;5047451;28;20007;-59
2022/11/11 03:55:39;;;;;;;;;;;;;;;8.93;95.60;102792.09;5049168;28;19917;-58
2022/11/11 03:58:05;;;;;;;;;;;;;;;8.92;95.87;102793.06;5049104;28;20015;-59
2022/11/11 04:00:30;;;;;;;;;;;;;;;8.92;95.42;102789.56;5049152;28;20472;-60
2022/11/11 04:11:18;;;;;;;;;;;;;;;8.85;96.05;102798.91;5050578;28;19924;-59
2022/11/11 04:16:29;;;;;;;;;;;;;;;8.83;95.77;102817.59;5039802;28;20090;-58
2022/11/11 04:21:44;;;;;;;;;;;;;;;8.82;96.11;102815.88;5047110;28;19928;-60
2022/11/11 04:27:04;;;;;;;;;;;;;;;8.81;96.08;102816.84;5047310;28;20402;-59
2022/11/11 04:29:29;;;;;;;;;;;;;;;8.79;96.12;102816.13;5048290;28;19924;-58
2022/11/11 04:34:40;;;;;;;;;;;;;;;8.76;96.03;102816.34;5047909;28;19963;-59
2022/11/11 04:37:05;;;;;;;;;;;;;;;8.76;96.25;102813.69;5042749;28;19951;-59
2022/11/11 04:42:14;;;;;;;;;;;;;;;8.75;96.35;102806.69;5041216;28;20291;-58
2022/11/11 04:47:23;;;;;;;;;;;;;;;8.74;96.19;102806.81;5048590;28;19928;-59
2022/11/11 04:49:48;;;;;;;;;;;;;;;8.74;96.10;102806.81;5043596;28;19932;-59
2022/11/11 04:52:47;;;;;;;;;;;;;;;8.74;96.36;102801.50;5049177;28;20430;-57
2022/11/11 04:57:49;;;;;;;;;;;;;;;8.71;96.40;102812.34;5048130;28;20071;-57
2022/11/11 05:00:15;;;;;;;;;;;;;;;8.67;96.21;102807.25;5045258;28;20015;-60
2022/11/11 05:05:25;;;;;;;;;;;;;;;8.66;96.33;102807.34;5048956;28;20030;-58
2022/11/11 05:10:35;;;;;;;;;;;;;;;8.61;96.17;102804.19;5044508;28;19967;-60
2022/11/11 05:21:20;;;;;;;;;;;;;;;8.54;96.63;102806.44;5045421;28;19923;-60
2022/11/11 05:26:29;;;;;;;;;;;;;;;8.51;96.42;102806.66;5043161;28;19935;-59
2022/11/11 05:28:54;;;;;;;;;;;;;;;8.51;96.81;102813.75;5045001;28;20011;-58
2022/11/11 05:31:19;;;;;;;;;;;;;;;8.51;96.55;102817.25;5050283;28;20438;-59
2022/11/11 05:33:45;;;;;;;;;;;;;;;8.49;96.87;102823.59;5050115;28;19952;-58
2022/11/11 05:36:10;;;;;;;;;;;;;;;8.47;96.54;102813.13;5044009;28;20014;-59
2022/11/11 05:38:35;;;;;;;;;;;;;;;8.47;96.58;102817.56;5044574;28;20035;-58
2022/11/11 05:41:00;;;;;;;;;;;;;;;8.46;96.46;102823.81;5044178;28;19944;-59
2022/11/11 05:43:25;;;;;;;;;;;;;;;8.45;96.42;102819.47;5046835;28;19916;-59
2022/11/11 05:45:50;;;;;;;;;;;;;;;8.41;96.74;102821.50;5050908;28;19927;-60
2022/11/11 05:48:16;;;;;;;;;;;;;;;8.40;96.72;102821.59;5047149;28;19924;-59
2022/11/11 05:50:41;;;;;;;;;;;;;;;8.37;96.70;102820.00;5047198;28;20011;-60
2022/11/11 05:53:07;;;;;;;;;;;;;;;8.32;96.82;102817.63;5047373;28;19921;-60
2022/11/11 05:55:32;;;;;;;;;;;;;;;8.30;96.88;102819.56;5045801;28;19916;-58
2022/11/11 05:57:57;;;;;;;;;;;;;;;8.27;96.97;102814.47;5045227;28;19917;-58
2022/11/11 06:00:22;;;;;;;;;;;;;;;8.25;97.05;102818.19;5050876;28;19932;-59
2022/11/11 06:02:47;;;;;;;;;;;;;;;8.22;97.14;102811.31;5045838;28;19917;-59
2022/11/11 06:05:12;;;;;;;;;;;;;;;8.20;97.11;102818.50;5048434;28;19925;-60
2022/11/11 06:07:39;;;;;;;;;;;;;;;8.18;97.27;102823.06;5049252;28;20553;-59
2022/11/11 06:13:04;;;;;;;;;;;;;;;8.14;97.48;102828.69;5047783;28;19923;-60
2022/11/11 06:15:33;;;;;;;;;;;;;;;8.13;97.25;102827.84;5051543;28;19925;-60
2022/11/11 06:17:58;;;;;;;;;;;;;;;8.11;97.36;102821.81;5054879;28;20501;-59
2022/11/11 06:20:24;;;;;;;;;;;;;;;8.10;97.37;102828.06;5053266;28;20008;-58
2022/11/11 06:22:55;;;;;;;;;;;;;;;8.08;97.74;102824.63;5049404;28;20383;-60
2022/11/11 06:28:04;;;;;;;;;;;;;;;8.08;97.56;102829.94;5048274;28;19955;-60
2022/11/11 06:30:29;;;;;;;;;;;;;;;8.07;97.89;102834.38;5046364;28;20367;-60
2022/11/11 06:32:54;;;;;;;;;;;;;;;8.08;97.50;102835.22;5049188;28;19924;-58
2022/11/11 06:35:19;;;;;;;;;;;;;;;8.06;97.60;102839.78;5048824;28;19975;-59
2022/11/11 06:37:44;;;;;;;;;;;;;;;8.06;97.63;102843.25;5046508;28;19920;-60
2022/11/11 06:40:10;;;;;;;;;;;;;;;8.04;97.55;102846.97;5045754;28;20369;-59
2022/11/11 06:42:36;;;;;;;;;;;;;;;8.00;97.62;102843.69;5047266;28;19917;-60
2022/11/11 06:45:01;;;;;;;;;;;;;;;7.99;97.86;102847.28;5055655;28;19944;-60
2022/11/11 06:47:26;;;;;;;;;;;;;;;7.94;97.79;102848.56;5053101;28;19916;-60
2022/11/11 06:49:52;;;;;;;;;;;;;;;7.91;97.46;102854.06;5055198;28;20943;-59
2022/11/11 06:52:17;;;;;;;;;;;;;;;7.87;97.64;102849.94;5049666;28;20011;-59
2022/11/11 06:54:42;;;;;;;;;;;;;;;7.84;97.88;102860.72;5051561;28;20269;-60
2022/11/11 06:57:08;;;;;;;;;;;;;;;7.83;97.56;102866.97;5048454;28;19921;-59
2022/11/11 06:59:33;;;;;;;;;;;;;;;7.80;97.96;102857.41;5048050;28;19923;-59
2022/11/11 07:01:58;;;;;;;;;;;;;;;7.75;98.02;102854.22;5049527;28;19917;-59
2022/11/11 07:04:23;;;;;;;;;;;;;;;7.73;98.01;102864.91;5048503;28;20019;-60
2022/11/11 07:06:48;;;;;;;;;;;;;;;7.71;98.26;102853.59;5048955;28;19925;-60
2022/11/11 07:09:13;;;;;;;;;;;;;;;7.71;98.34;102865.97;5047875;28;19960;-60
2022/11/11 07:11:38;;;;;;;;;;;;;;;7.67;98.33;102860.03;5050131;28;19916;-60
2022/11/11 07:14:04;;;;;;;;;;;;;;;7.67;98.16;102872.41;5052945;28;19919;-59
2022/11/11 07:16:29;;;;;;;;;;;;;;;7.65;98.32;102879.59;5046443;28;19920;-60
2022/11/11 07:18:54;;;;;;;;;;;;;;;7.63;98.65;102870.94;5049819;28;20467;-58
2022/11/11 07:21:19;;;;;;;;;;;;;;;7.63;98.45;102877.06;5056003;28;19917;-59
2022/11/11 07:23:44;;;;;;;;;;;;;;;7.64;98.56;102878.75;5047507;28;19921;-60
2022/11/11 07:26:10;;;;;;;;;;;;;;;7.66;98.31;102883.94;5046905;28;19921;-61
2022/11/11 07:28:35;;;;;;;;;;;;;;;7.67;98.70;102889.13;5049562;28;19931;-60
2022/11/11 07:31:00;;;;;;;;;;;;;;;7.67;98.73;102886.47;5047195;28;20004;-57
2022/11/11 07:33:25;;;;;;;;;;;;;;;7.66;98.36;102895.38;5048750;28;19913;-58
2022/11/11 07:35:50;;;;;;;;;;;;;;;7.66;98.40;102887.44;5048477;28;19971;-56
2022/11/11 07:38:16;;;;;;;;;;;;;;;7.65;98.36;102898.09;5053934;28;19928;-55
2022/11/11 07:40:41;;;;;;;;;;;;;;;7.63;97.91;102903.50;5044840;28;19924;-57
2022/11/11 07:43:06;;;;;;;;;;;;;;;7.60;97.78;102895.78;5046395;28;19963;-54
2022/11/11 07:45:31;;;;;;;;;;;;;;;7.59;97.80;102904.66;5048352;28;19925;-55
2022/11/11 07:47:56;;;;;;;;;;;;;;;7.58;97.41;102902.13;5048037;28;19959;-56
2022/11/11 07:50:21;;;;;;;;;;;;;;;7.58;97.40;102908.25;5048502;28;19913;-56
2022/11/11 07:52:47;;;;;;;;;;;;;;;7.55;97.28;102913.75;5047934;28;19950;-53
2022/11/11 07:55:12;;;;;;;;;;;;;;;7.57;97.19;102918.94;4987861;28;1735423;-54
2022/11/11 07:57:37;;;;;;;;;;;;;;;7.56;97.26;102918.09;5045620;28;19912;-54
2022/11/11 08:00:04;;;;;;;;;;;;;;;7.56;97.22;102928.66;5047107;28;19952;-55
2022/11/11 08:02:29;;;;;;;;;;;;;;;7.58;97.01;102937.34;5048646;28;20319;-53
2022/11/11 08:04:54;;;;;;;;;;;;;;;7.59;96.74;102938.19;5049543;28;19924;-55
2022/11/11 08:07:20;;;;;;;;;;;;;;;7.62;96.88;102940.63;5049134;28;19988;-55
2022/11/11 08:09:45;;;;;;;;;;;;;;;7.64;97.01;102938.72;5059722;28;19913;-54
2022/11/11 08:14:53;;;;;;;;;;;;;;;7.68;96.66;102942.88;5046927;28;19923;-56
2022/11/11 08:17:19;;;;;;;;;;;;;;;7.69;96.49;102939.25;5046067;28;20284;-55
2022/11/11 08:19:44;;;;;;;;;;;;;;;7.71;96.68;102940.88;5055205;28;19946;-55
2022/11/11 08:22:09;;;;;;;;;;;;;;;7.73;96.66;102944.25;5048226;28;19917;-55
2022/11/11 08:24:34;;;;;;;;;;;;;;;7.75;96.33;102946.78;5045085;28;19920;-56
2022/11/11 08:26:59;;;;;;;;;;;;;;;7.77;96.15;102953.69;5046821;28;19940;-54
2022/11/11 08:29:25;;;;;;;;;;;;;;;7.81;96.13;102956.16;5028218;28;20082;-56
2022/11/11 08:31:53;;;;;;;;;;;;;;;7.82;96.23;102960.50;5045137;28;19920;-56
2022/11/11 08:34:18;;;;;;;;;;;;;;;7.83;96.30;102962.19;5048624;28;19913;-56
2022/11/11 08:36:43;;;;;;;;;;;;;;;7.84;95.80;102967.38;5046616;28;19924;-56
2022/11/11 08:39:08;;;;;;;;;;;;;;;7.85;96.12;102966.41;5045289;28;20284;-55
2022/11/11 08:41:33;;;;;;;;;;;;;;;7.86;95.89;102968.13;5047196;28;19916;-56
2022/11/11 08:43:59;;;;;;;;;;;;;;;7.88;95.49;102971.50;5047780;28;19917;-56
2022/11/11 08:46:25;;;;;;;;;;;;;;;7.89;95.63;102977.66;5041505;28;20337;-55
2022/11/11 08:48:50;;;;;;;;;;;;;;;7.93;95.67;102968.56;5045231;28;19932;-55
2022/11/11 08:51:15;;;;;;;;;;;;;;;7.96;95.59;102966.56;5046236;28;20296;-56
2022/11/11 08:53:41;;;;;;;;;;;;;;;7.98;95.41;102977.88;5045543;28;19916;-54
2022/11/11 08:56:07;;;;;;;;;;;;;;;8.01;95.34;102975.03;5045842;28;19916;-54
2022/11/11 08:58:32;;;;;;;;;;;;;;;8.04;95.14;102977.47;5048230;28;19917;-55
2022/11/11 09:00:57;;;;;;;;;;;;;;;8.06;95.34;102977.38;5047248;28;19921;-54
2022/11/11 09:03:23;;;;;;;;;;;;;;;8.11;95.16;102982.38;5044670;28;19933;-55
2022/11/11 09:05:48;;;;;;;;;;;;;;;8.12;95.00;102984.91;5044089;28;20307;-54
2022/11/11 09:08:13;;;;;;;;;;;;;;;8.15;94.80;102983.88;5047199;28;19913;-56
2022/11/11 09:10:38;;;;;;;;;;;;;;;8.16;94.51;102978.47;5041787;28;20457;-54
2022/11/11 09:13:04;;;;;;;;;;;;;;;8.18;94.45;102971.28;5045989;28;20435;-55
2022/11/11 09:15:29;;;;;;;;;;;;;;;8.21;94.49;102972.88;5047987;28;19920;-53
2022/11/11 09:17:54;;;;;;;;;;;;;;;8.23;94.35;102976.25;5045145;28;19943;-55
2022/11/11 09:20:20;;;;;;;;;;;;;;;8.27;93.88;102975.09;5047788;28;20048;-55
2022/11/11 09:22:46;;;;;;;;;;;;;;;8.29;93.90;102981.13;5052502;28;19917;-56
2022/11/11 09:25:12;;;;;;;;;;;;;;;8.33;93.89;102985.25;5047978;28;19923;-55
2022/11/11 09:27:38;;;;;;;;;;;;;;;8.35;93.72;102984.25;5032296;28;19917;-56
2022/11/11 09:30:04;;;;;;;;;;;;;;;8.38;93.80;102980.53;5048689;28;19967;-56
2022/11/11 09:32:29;;;;;;;;;;;;;;;8.40;93.94;102985.75;5046693;28;19928;-56
2022/11/11 09:34:54;;;;;;;;;;;;;;;8.42;93.32;102986.50;5045178;28;19917;-54
2022/11/11 09:37:20;;;;;;;;;;;;;;;8.44;93.42;102982.78;5047888;28;19921;-54
2022/11/11 09:39:45;;;;;;;;;;;;;;;8.48;93.35;102986.06;5044550;28;20300;-56
2022/11/11 09:42:16;;;;;;;;;;;;;;;8.52;93.17;102992.84;5050484;28;19963;-54
2022/11/11 09:44:47;;;;;;;;;;;;;;;8.58;93.00;102990.63;5043293;28;20399;-55
2022/11/11 09:47:31;;;;;;;;;;;;;;;8.65;93.05;102983.94;5046317;28;20681;-55
2022/11/11 09:50:10;;;;;;;;;;;;;;;8.69;93.01;102988.09;5044998;28;19996;-55
2022/11/11 09:52:51;;;;;;;;;;;;;;;8.72;92.80;102989.69;5049905;28;19916;-54
2022/11/11 09:55:34;;;;;;;;;;;;;;;8.73;92.42;102987.91;5049193;28;20380;-56
2022/11/11 09:58:03;;;;;;;;;;;;;;;8.77;92.58;102990.22;5042786;28;20448;-53
2022/11/11 10:00:29;;;;;;;;;;;;;;;8.82;92.41;102992.56;5039539;28;19920;-56
2022/11/11 10:03:10;;;;;;;;;;;;;;;8.87;92.65;103001.88;5049625;28;19913;-53
2022/11/11 10:05:54;;;;;;;;;;;;;;;8.89;91.86;102997.31;5045830;28;20388;-54
2022/11/11 10:08:22;;;;;;;;;;;;;;;8.94;91.92;102997.84;5047448;28;19944;-52
2022/11/11 10:10:48;;;;;;;;;;;;;;;9.00;91.74;103005.38;5044713;28;19939;-54
2022/11/11 10:13:15;;;;;;;;;;;;;;;9.06;91.53;103001.44;5047183;28;19917;-52
2022/11/11 10:15:48;;;;;;;;;;;;;;;9.11;91.49;103006.41;5045193;28;19932;-55
2022/11/11 10:18:17;;;;;;;;;;;;;;;9.17;91.49;103013.94;5044915;28;19916;-55
2022/11/11 10:20:47;;;;;;;;;;;;;;;9.21;91.16;103021.56;5045821;28;19928;-53
2022/11/11 10:23:17;;;;;;;;;;;;;;;9.24;90.78;103015.19;5046840;28;19967;-55
2022/11/11 10:26:06;;;;;;;;;;;;;;;9.26;90.54;103011.50;5047259;28;19942;-56
2022/11/11 10:28:34;;;;;;;;;;;;;;;9.28;90.26;103003.44;5037184;28;19958;-57
2022/11/11 10:31:00;;;;;;;;;;;;;;;9.31;90.00;103008.50;5045491;28;19921;-56
2022/11/11 10:33:28;;;;;;;;;;;;;;;9.39;90.45;103003.50;5045651;28;20074;-55
2022/11/11 10:35:56;;;;;;;;;;;;;;;9.49;90.66;103001.03;5045009;28;19917;-54
2022/11/11 10:38:34;;;;;;;;;;;;;;;9.55;90.12;103006.75;5045134;28;19928;-56
2022/11/11 10:41:05;;;;;;;;;;;;;;;9.57;89.99;103007.50;5045179;28;19921;-57
2022/11/11 10:43:30;;;;;;;;;;;;;;;9.64;89.90;103010.53;5045734;28;19921;-55
2022/11/11 10:46:14;;;;;;;;;;;;;;;9.65;89.52;103004.28;5046936;28;19916;-55
2022/11/11 10:48:58;;;;;;;;;;;;;;;9.69;89.24;103005.75;5045366;28;19912;-56
2022/11/11 10:51:26;;;;;;;;;;;;;;;9.73;89.03;102998.41;5041230;28;19935;-55
2022/11/11 10:54:01;;;;;;;;;;;;;;;9.79;89.10;102998.78;5048720;28;20462;-57
2022/11/11 10:56:46;;;;;;;;;;;;;;;9.84;88.81;103003.78;5045965;28;20011;-55
2022/11/11 10:59:20;;;;;;;;;;;;;;;9.89;88.34;102996.34;5055467;28;19959;-55
2022/11/11 11:01:48;;;;;;;;;;;;;;;9.93;88.33;102998.66;5047510;28;19916;-55
2022/11/11 11:04:34;;;;;;;;;;;;;;;10.00;88.05;103001.69;5049983;28;19917;-55
2022/11/11 11:07:00;;;;;;;;;;;;;;;10.11;87.83;103007.03;5049515;28;20438;-55
2022/11/11 11:09:31;;;;;;;;;;;;;;;10.19;87.87;103006.47;5052563;28;20281;-53
2022/11/11 11:12:02;;;;;;;;;;;;;;;10.28;87.15;102999.66;5047013;28;19917;-55
2022/11/11 11:14:36;;;;;;;;;;;;;;;10.37;87.29;102988.31;5050120;28;19916;-54
2022/11/11 11:17:07;;;;;;;;;;;;;;;10.47;87.13;102992.84;5050623;28;19919;-52
2022/11/11 11:19:33;;;;;;;;;;;;;;;10.56;87.15;102991.28;5054641;28;19912;-54
2022/11/11 11:21:59;;;;;;;;;;;;;;;10.64;86.70;102991.53;5047434;28;19917;-56
2022/11/11 11:24:25;;;;;;;;;;;;;;;10.73;85.90;102988.19;5049610;28;19917;-56
2022/11/11 11:26:53;;;;;;;;;;;;;;;10.79;85.54;102985.03;5054823;28;20617;-54
2022/11/11 11:29:23;;;;;;;;;;;;;;;10.91;85.07;102990.34;5050604;28;19924;-55
2022/11/11 11:31:48;;;;;;;;;;;;;;;10.99;84.58;102990.63;5050332;28;19913;-54
2022/11/11 11:34:14;;;;;;;;;;;;;;;11.06;84.58;102976.72;5049820;28;20420;-56
2022/11/11 11:36:39;;;;;;;;;;;;;;;11.14;84.16;102979.59;5050480;28;19921;-55
2022/11/11 11:39:04;;;;;;;;;;;;;;;11.22;84.05;102984.31;5048973;28;19921;-55
2022/11/11 11:41:35;;;;;;;;;;;;;;;11.23;83.19;102967.38;5047870;28;20327;-53
2022/11/11 11:44:01;;;;;;;;;;;;;;;11.28;82.09;102989.16;5049265;28;20051;-54
2022/11/11 11:46:27;;;;;;;;;;;;;;;11.30;82.08;102987.22;5053414;28;20597;-55
2022/11/11 11:49:11;;;;;;;;;;;;;;;11.35;82.05;102977.06;5050274;28;19955;-55
2022/11/11 11:51:46;;;;;;;;;;;;;;;11.44;81.79;102975.47;5047336;28;19913;-55
2022/11/11 11:54:20;;;;;;;;;;;;;;;11.57;81.99;102973.50;5042840;28;19917;-53
2022/11/11 11:56:51;;;;;;;;;;;;;;;11.70;81.38;102978.66;5048066;28;19923;-56
2022/11/11 11:59:35;;;;;;;;;;;;;;;11.75;80.63;102979.13;5039596;28;19920;-56
2022/11/11 12:02:20;;;;;;;;;;;;;;;11.81;80.50;102973.34;5047030;28;19921;-52
2022/11/11 12:04:55;;;;;;;;;;;;;;;11.93;79.44;102974.16;5037873;28;19925;-55
2022/11/11 12:07:35;;;;;;;;;;;;;;;12.00;80.02;102978.84;5047120;28;19931;-56
2022/11/11 12:10:03;;;;;;;;;;;;;;;12.06;79.35;102973.00;5051987;28;19927;-54
2022/11/11 12:12:49;;;;;;;;;;;;;;;12.14;78.54;102968.84;5045824;28;19917;-52
2022/11/11 12:15:14;;;;;;;;;;;;;;;12.19;78.01;102972.81;5048022;28;20441;-56
2022/11/11 12:17:39;;;;;;;;;;;;;;;12.25;77.69;102971.47;5047551;28;20015;-55
2022/11/11 12:20:13;;;;;;;;;;;;;;;12.36;77.47;102974.91;5040423;28;20328;-55
2022/11/11 12:22:46;;;;;;;;;;;;;;;12.47;76.61;102971.34;5052203;28;20354;-54
2022/11/11 12:25:35;;;;;;;;;;;;;;;12.57;76.67;102963.38;5048451;28;19927;-55
2022/11/11 12:28:13;;;;;;;;;;;;;;;12.70;76.37;102961.34;5019520;28;20000;-56
2022/11/11 12:30:41;;;;;;;;;;;;;;;12.78;75.98;102945.56;5048017;28;19913;-56
2022/11/11 12:33:25;;;;;;;;;;;;;;;12.86;75.46;102945.72;5047553;28;20423;-55
2022/11/11 12:36:16;;;;;;;;;;;;;;;12.97;74.74;102953.59;5043380;28;19928;-56
2022/11/11 12:38:54;;;;;;;;;;;;;;;13.05;74.45;102955.63;5039638;28;19917;-56
2022/11/11 12:41:20;;;;;;;;;;;;;;;13.18;74.05;102945.56;5047044;28;20443;-55
2022/11/11 12:43:57;;;;;;;;;;;;;;;13.27;73.90;102949.25;5048437;28;19920;-56
2022/11/11 12:46:32;;;;;;;;;;;;;;;13.28;72.86;102937.59;5040647;28;19995;-56
2022/11/11 12:49:00;;;;;;;;;;;;;;;13.27;72.42;102935.91;5046512;28;19917;-56
2022/11/11 12:51:35;;;;;;;;;;;;;;;13.22;71.78;102940.81;5047724;28;20341;-56
2022/11/11 12:54:01;;;;;;;;;;;;;;;13.22;72.06;102947.00;5047706;28;20364;-54
2022/11/11 12:56:44;;;;;;;;;;;;;;;13.29;72.50;102955.28;5044144;28;20387;-55
2022/11/11 12:59:25;;;;;;;;;;;;;;;13.37;72.49;102946.63;5036637;28;19920;-55
2022/11/11 13:01:55;;;;;;;;;;;;;;;13.44;72.04;102950.41;5045762;28;19943;-56
2022/11/11 13:04:37;;;;;;;;;;;;;;;13.51;72.05;102943.53;5049003;28;19921;-56
2022/11/11 13:07:05;;;;;;;;;;;;;;;13.62;71.75;102938.94;5044841;28;19925;-56
2022/11/11 13:09:53;;;;;;;;;;;;;;;13.68;70.97;102942.03;5041014;28;19920;-56
2022/11/11 13:12:24;;;;;;;;;;;;;;;13.72;71.58;102946.94;5037361;28;19917;-56
2022/11/11 13:14:55;;;;;;;;;;;;;;;13.86;71.75;102943.00;5036522;28;20063;-57
2022/11/11 13:17:20;;;;;;;;;;;;;;;13.95;70.63;102942.19;5046348;28;20589;-56
2022/11/11 13:19:54;;;;;;;;;;;;;;;13.99;69.88;102940.91;5050460;28;19923;-56
2022/11/11 13:22:21;;;;;;;;;;;;;;;14.00;69.35;102939.06;5044770;28;19924;-56
2022/11/11 13:24:50;;;;;;;;;;;;;;;14.06;70.04;102931.34;5050267;28;19921;-55
2022/11/11 13:27:26;;;;;;;;;;;;;;;14.17;69.12;102930.34;5050223;28;20416;-56
2022/11/11 13:30:10;;;;;;;;;;;;;;;14.19;68.96;102926.56;5041798;28;20411;-55
2022/11/11 13:32:35;;;;;;;;;;;;;;;14.23;69.52;102927.94;5044003;28;19917;-55
2022/11/11 13:35:00;;;;;;;;;;;;;;;14.26;68.94;102924.97;5045585;28;19927;-53
2022/11/11 13:37:27;;;;;;;;;;;;;;;14.29;68.47;102926.53;5046809;28;19920;-55
2022/11/11 13:39:57;;;;;;;;;;;;;;;14.32;68.65;102931.56;5043108;28;19925;-56
2022/11/11 13:42:25;;;;;;;;;;;;;;;14.38;68.87;102932.81;5043268;28;19948;-57
2022/11/11 13:44:52;;;;;;;;;;;;;;;14.49;68.65;102936.22;5041602;28;20020;-57
2022/11/11 13:47:19;;;;;;;;;;;;;;;14.49;68.25;102936.22;5049207;28;19921;-56
2022/11/11 13:50:11;;;;;;;;;;;;;;;14.51;67.83;102938.75;5046479;28;19913;-56
2022/11/11 13:52:40;;;;;;;;;;;;;;;14.37;66.68;102934.66;5029012;28;19917;-54
2022/11/11 13:55:07;;;;;;;;;;;;;;;14.22;67.31;102933.44;5046149;28;20455;-56
2022/11/11 13:57:34;;;;;;;;;;;;;;;14.14;66.99;102931.44;5046260;28;19917;-56
2022/11/11 14:00:03;;;;;;;;;;;;;;;14.12;67.64;102932.59;5050587;28;19920;-55
2022/11/11 14:02:32;;;;;;;;;;;;;;;14.13;67.38;102940.47;5048005;28;19917;-56
2022/11/11 14:05:00;;;;;;;;;;;;;;;14.12;67.53;102932.59;5045172;28;19943;-54
2022/11/11 14:07:43;;;;;;;;;;;;;;;14.07;67.17;102937.50;5053326;28;19967;-55